Terminal Aerodrome Forecast
Issued by NWS

Home | Current Version | Previous Version | Text Only | Print | Product List | Glossary On
Versions: 1 2 3 4 5 6 7 8 9 10 11 12 13 14 15 16 17 18 19 20 21 22 23 24 25 26
000
FTUS41 KPBZ 171010 AAB
TAFLBE
TAF AMD
KLBE 171010Z 1710/1806 00000KT 3SM -RA BKN035
     FM171300 17005KT P6SM -RA BKN035 WS020/20035KT
     FM172000 23010G18KT 5SM -RA BR OVC015=

USA.gov is the U.S. government's official web portal to all federal, state and local government web resources and services.